Time;durP1;ratioP1;P1;durP2;ratioP2;P2;SDS_P1;SDS_P2;PMS_P1;PMS_P2;Temp;Humidity;BMP_temperature;BMP_pressure;BME280_temperature;BME280_humidity;BME280_pressure;Samples;Min_cycle;Max_cycle;Signal;HPM_P1;HPM_P2
2022/06/25 00:01:57;;;;;;;1.85;1.75;;;;;;;18.88;73.75;100602.94;3570347;40;20064;-63
2022/06/25 00:07:08;;;;;;;3.35;1.88;;;;;;;18.89;73.24;100609.25;3569635;40;20089;-63
2022/06/25 00:09:34;;;;;;;5.78;1.88;;;;;;;18.89;73.19;100614.69;3568078;40;20056;-65
2022/06/25 00:14:44;;;;;;;3.00;1.80;;;;;;;18.85;74.11;100618.75;3570338;40;20047;-64
2022/06/25 00:17:09;;;;;;;2.38;1.83;;;;;;;18.84;74.40;100617.88;3574239;40;20060;-63
2022/06/25 00:19:35;;;;;;;3.17;2.13;;;;;;;18.82;73.39;100624.50;3570486;40;20075;-64
2022/06/25 00:22:01;;;;;;;3.38;2.17;;;;;;;18.80;73.47;100619.19;3569844;40;20119;-63
2022/06/25 00:24:27;;;;;;;3.75;2.03;;;;;;;18.78;74.01;100619.34;3570541;40;20073;-64
2022/06/25 00:26:53;;;;;;;2.17;1.88;;;;;;;18.70;74.43;100616.50;3572109;40;20313;-64
2022/06/25 00:29:18;;;;;;;2.72;1.88;;;;;;;18.67;73.82;100611.34;3570023;40;20049;-64
2022/06/25 00:31:44;;;;;;;2.33;2.00;;;;;;;18.66;74.46;100619.69;3571199;40;20087;-64
2022/06/25 00:34:09;;;;;;;2.42;2.17;;;;;;;18.62;73.98;100616.41;3573867;40;20059;-64
2022/06/25 00:36:35;;;;;;;3.92;2.00;;;;;;;18.63;74.06;100611.81;3571058;40;20057;-64
2022/06/25 00:39:01;;;;;;;3.00;2.13;;;;;;;18.57;75.21;100616.00;3571407;40;20069;-64
2022/06/25 00:41:28;;;;;;;3.63;2.05;;;;;;;18.59;74.59;100619.44;3570396;40;20076;-64
2022/06/25 00:43:54;;;;;;;5.28;2.25;;;;;;;18.56;74.67;100619.75;3571213;40;20125;-65
2022/06/25 00:46:19;;;;;;;2.55;2.20;;;;;;;18.52;74.30;100616.47;3570706;40;20073;-63
2022/06/25 00:48:45;;;;;;;2.75;2.30;;;;;;;18.51;74.81;100616.59;3572491;40;20052;-65
2022/06/25 00:51:14;;;;;;;2.60;2.28;;;;;;;18.49;74.87;100626.78;3567226;40;20053;-65
2022/06/25 00:53:43;;;;;;;2.40;2.20;;;;;;;18.34;75.53;100604.66;3570862;40;20336;-65
2022/06/25 00:56:12;;;;;;;2.92;2.20;;;;;;;18.41;75.01;100616.66;3571828;40;20053;-66
2022/06/25 00:58:42;;;;;;;4.22;2.05;;;;;;;18.41;75.39;100623.97;3567985;40;20056;-65
2022/06/25 01:01:09;;;;;;;2.75;2.50;;;;;;;18.41;75.47;100627.53;3570747;40;20057;-65
2022/06/25 01:03:37;;;;;;;2.83;2.63;;;;;;;18.39;75.27;100623.25;3569562;40;20060;-64
2022/06/25 01:06:04;;;;;;;3.25;2.50;;;;;;;18.35;75.12;100639.03;3568017;40;20115;-65
2022/06/25 01:08:35;;;;;;;3.22;2.30;;;;;;;18.30;75.57;100633.19;3568062;40;20064;-65
2022/06/25 01:11:02;;;;;;;3.60;2.40;;;;;;;18.28;75.59;100644.22;3572092;40;20052;-66
2022/06/25 01:13:29;;;;;;;3.88;2.40;;;;;;;18.29;75.35;100629.59;3571251;40;20075;-65
2022/06/25 01:15:55;;;;;;;4.82;2.67;;;;;;;18.10;75.34;100611.47;3572511;40;20048;-65
2022/06/25 01:18:20;;;;;;;3.08;2.40;;;;;;;18.23;75.92;100641.06;3573007;40;20441;-64
2022/06/25 01:20:46;;;;;;;8.88;2.75;;;;;;;18.22;75.32;100639.38;3574440;40;20166;-64
2022/06/25 01:23:13;;;;;;;3.10;2.60;;;;;;;18.20;76.29;100640.50;3570702;40;20045;-64
2022/06/25 01:25:40;;;;;;;4.75;2.55;;;;;;;18.20;75.74;100652.25;3569008;40;20432;-64
2022/06/25 01:28:07;;;;;;;5.50;2.80;;;;;;;18.22;75.95;100663.84;3569171;40;20049;-64
2022/06/25 01:30:34;;;;;;;5.05;2.90;;;;;;;18.20;75.61;100654.97;3570755;40;20418;-64
2022/06/25 01:33:00;;;;;;;3.10;2.53;;;;;;;18.17;76.20;100658.00;3570446;40;20076;-64
2022/06/25 01:35:26;;;;;;;5.32;3.00;;;;;;;17.87;75.81;100610.13;3571051;40;20149;-64
2022/06/25 01:37:51;;;;;;;3.42;2.80;;;;;;;18.12;75.39;100663.03;3570274;40;20068;-64
2022/06/25 01:40:17;;;;;;;4.85;2.72;;;;;;;18.14;75.96;100666.47;3571570;40;20134;-63
2022/06/25 01:42:58;;;;;;;6.55;3.00;;;;;;;18.13;75.69;100663.88;3574107;40;20122;-63
2022/06/25 01:45:25;;;;;;;4.57;3.15;;;;;;;18.09;76.10;100666.91;3570914;40;20388;-63
2022/06/25 01:47:51;;;;;;;3.15;2.83;;;;;;;18.07;76.19;100679.78;3572076;40;20075;-64
2022/06/25 01:50:17;;;;;;;7.53;3.25;;;;;;;18.05;75.68;100676.38;3570431;40;20044;-64
2022/06/25 01:52:43;;;;;;;3.85;2.70;;;;;;;18.03;75.97;100677.50;3572697;40;20373;-63
2022/06/25 01:55:10;;;;;;;5.75;3.03;;;;;;;18.03;75.92;100677.50;3569742;40;20092;-64
2022/06/25 01:57:37;;;;;;;4.20;3.00;;;;;;;18.03;75.57;100682.97;3572491;40;20060;-63
2022/06/25 02:00:07;;;;;;;3.85;2.90;;;;;;;18.02;75.47;100686.69;3568574;40;20089;-63
2022/06/25 02:02:33;;;;;;;4.78;2.83;;;;;;;17.98;76.00;100685.25;3565487;40;20064;-63
2022/06/25 02:04:58;;;;;;;6.53;3.38;;;;;;;17.98;75.33;100687.97;3569421;40;20331;-64
2022/06/25 02:07:24;;;;;;;4.05;2.72;;;;;;;17.96;75.36;100687.28;3569104;40;20052;-64
2022/06/25 02:09:50;;;;;;;3.88;3.00;;;;;;;17.95;75.79;100688.25;3571395;40;20060;-65
2022/06/25 02:12:15;;;;;;;4.95;3.00;;;;;;;17.90;75.49;100699.59;3569997;40;20405;-64
2022/06/25 02:14:41;;;;;;;4.75;3.40;;;;;;;17.89;76.21;100699.72;3571853;40;20052;-63
2022/06/25 02:17:07;;;;;;;4.68;2.90;;;;;;;17.86;75.33;100704.47;3569390;40;20061;-64
2022/06/25 02:19:33;;;;;;;4.68;3.05;;;;;;;17.86;75.88;100699.03;3571617;40;20621;-64
2022/06/25 02:21:59;;;;;;;4.75;2.95;;;;;;;17.84;75.27;100706.47;3570818;40;20379;-64
2022/06/25 02:24:24;;;;;;;5.03;3.35;;;;;;;17.70;75.56;100687.84;3570467;40;20657;-63
2022/06/25 02:26:50;;;;;;;5.43;3.03;;;;;;;17.76;76.04;100717.19;3572380;40;20048;-64
2022/06/25 02:29:15;;;;;;;4.25;3.00;;;;;;;17.73;76.06;100714.75;3560540;40;20124;-63
2022/06/25 02:31:41;;;;;;;5.88;3.05;;;;;;;17.74;75.47;100716.47;3570923;40;20067;-63
2022/06/25 02:34:06;;;;;;;4.57;3.20;;;;;;;17.72;76.32;100718.44;3571157;40;20068;-63
2022/06/25 02:36:32;;;;;;;4.78;3.10;;;;;;;17.70;76.15;100731.34;3570586;40;20304;-63
2022/06/25 02:38:58;;;;;;;6.45;3.05;;;;;;;17.72;75.93;100718.44;3573635;40;20076;-63
2022/06/25 02:41:23;;;;;;;5.88;2.85;;;;;;;17.71;76.37;100726.75;3562606;40;20071;-63
2022/06/25 02:43:49;;;;;;;3.67;3.33;;;;;;;17.70;76.10;100731.34;3571723;40;20059;-63
2022/06/25 02:46:15;;;;;;;5.53;3.53;;;;;;;17.70;76.07;100738.66;3560381;40;20052;-63
2022/06/25 02:48:40;;;;;;;4.45;3.28;;;;;;;17.67;76.16;100738.94;3571215;40;20067;-63
2022/06/25 02:51:06;;;;;;;3.42;3.00;;;;;;;17.60;75.95;100734.06;3568701;40;20076;-63
2022/06/25 02:53:32;;;;;;;4.95;3.55;;;;;;;17.64;76.01;100742.78;3559393;40;20076;-63
2022/06/25 02:58:58;;;;;;;7.25;6.18;;;;;;;17.69;76.25;100759.53;3570755;40;20090;-63
2022/06/25 03:01:29;;;;;;;4.88;4.20;;;;;;;17.69;76.35;100753.22;3569424;40;20059;-63
2022/06/25 03:03:57;;;;;;;9.85;3.80;;;;;;;17.66;76.29;100746.22;3570114;40;20056;-63
2022/06/25 03:06:23;;;;;;;4.90;3.80;;;;;;;17.68;75.18;100744.22;3570715;40;20101;-64
2022/06/25 03:08:50;;;;;;;7.20;3.63;;;;;;;17.60;75.76;100731.34;3569963;40;20079;-65
2022/06/25 03:11:17;;;;;;;7.40;3.90;;;;;;;17.68;75.73;100738.78;3569458;40;20585;-65
2022/06/25 03:13:43;;;;;;;5.68;3.80;;;;;;;17.65;75.61;100739.06;3573283;40;20045;-64
2022/06/25 03:16:09;;;;;;;9.07;3.95;;;;;;;17.64;75.34;100745.50;3570576;40;20048;-64
2022/06/25 03:18:37;;;;;;;3.92;3.50;;;;;;;17.65;75.83;100741.78;3571348;40;20157;-64
2022/06/25 03:21:04;;;;;;;4.22;3.80;;;;;;;17.63;76.07;100743.78;3570701;40;20059;-62
2022/06/25 03:23:30;;;;;;;4.75;3.70;;;;;;;17.64;76.14;100748.22;3570870;40;20060;-62
2022/06/25 03:25:56;;;;;;;7.90;3.60;;;;;;;17.59;75.57;100735.06;3574897;40;20056;-62
2022/06/25 03:28:22;;;;;;;4.32;3.33;;;;;;;17.67;75.23;100738.94;3570186;40;20065;-62
2022/06/25 03:30:48;;;;;;;6.07;3.90;;;;;;;16.93;75.51;100620.75;3569874;40;20045;-61
2022/06/25 03:33:14;;;;;;;5.30;3.20;;;;;;;17.44;75.69;100703.84;3567000;40;20049;-61
2022/06/25 03:35:41;;;;;;;4.88;3.78;;;;;;;17.69;76.12;100745.91;3572709;40;20045;-61
2022/06/25 03:38:07;;;;;;;6.93;3.50;;;;;;;17.64;75.75;100743.66;3568959;40;20056;-61
2022/06/25 03:40:32;;;;;;;5.20;3.53;;;;;;;17.80;75.33;100759.41;3569672;40;20049;-61
2022/06/25 03:42:59;;;;;;;6.45;3.30;;;;;;;17.84;75.84;100754.56;3570485;40;20080;-61
2022/06/25 03:45:25;;;;;;;3.75;2.97;;;;;;;17.86;74.99;100747.97;3559852;40;20075;-61
2022/06/25 03:47:51;;;;;;;3.90;3.20;;;;;;;17.95;75.49;100757.13;3570855;40;20074;-61
2022/06/25 03:50:21;;;;;;;5.60;3.20;;;;;;;17.91;75.25;100746.66;3569637;40;20073;-61
2022/06/25 03:52:49;;;;;;;5.07;3.25;;;;;;;18.01;74.69;100764.69;3561690;40;20061;-61
2022/06/25 03:55:16;;;;;;;4.10;3.15;;;;;;;17.99;74.65;100757.69;3570517;40;20045;-61
2022/06/25 03:57:42;;;;;;;6.15;3.20;;;;;;;18.02;74.55;100762.84;3569980;40;20491;-61
2022/06/25 04:00:09;;;;;;;7.95;3.20;;;;;;;18.08;74.11;100756.84;3569400;40;20097;-64
2022/06/25 04:02:36;;;;;;;4.65;3.13;;;;;;;18.10;75.12;100757.53;3568797;40;21704;-64
2022/06/25 04:05:03;;;;;;;3.63;3.00;;;;;;;18.04;74.52;100756.25;3570600;40;20063;-61
2022/06/25 04:07:29;;;;;;;6.13;3.38;;;;;;;18.14;73.94;100767.13;3569584;40;20047;-61
2022/06/25 04:09:54;;;;;;;5.10;2.97;;;;;;;18.21;73.81;100759.25;3571141;40;20069;-61
2022/06/25 04:12:20;;;;;;;4.60;2.72;;;;;;;18.26;73.62;100763.22;3568851;40;20067;-61
2022/06/25 04:14:45;;;;;;;8.75;3.20;;;;;;;18.28;73.72;100769.38;3560214;40;20088;-61
2022/06/25 04:17:12;;;;;;;3.10;2.80;;;;;;;18.27;73.68;100764.97;3570878;40;20060;-61
2022/06/25 04:19:42;;;;;;;5.82;2.88;;;;;;;18.14;73.63;100734.50;3569246;40;20091;-61
2022/06/25 04:22:12;;;;;;;5.10;3.05;;;;;;;18.30;74.13;100764.69;3568607;40;20167;-62
2022/06/25 04:24:40;;;;;;;4.30;2.95;;;;;;;18.33;73.34;100761.66;3569163;40;20061;-61
2022/06/25 04:27:07;;;;;;;3.58;3.00;;;;;;;18.38;73.85;100771.25;3569874;40;20114;-61
2022/06/25 04:29:33;;;;;;;3.72;2.85;;;;;;;18.39;74.45;100770.22;3569432;40;20088;-61
2022/06/25 04:31:58;;;;;;;3.08;2.78;;;;;;;18.45;73.31;100769.63;3566204;40;20060;-61
2022/06/25 04:34:25;;;;;;;2.83;2.53;;;;;;;18.51;73.79;100779.94;3569109;40;20067;-61
2022/06/25 04:36:51;;;;;;;4.15;2.92;;;;;;;18.29;73.40;100726.69;3570309;40;20072;-61
2022/06/25 04:39:17;;;;;;;4.78;2.78;;;;;;;18.48;73.03;100755.72;3570784;40;20119;-61
2022/06/25 04:41:45;;;;;;;4.40;2.90;;;;;;;18.67;72.71;100780.16;3567747;40;20067;-61
2022/06/25 04:44:11;;;;;;;4.28;2.72;;;;;;;18.63;73.47;100784.19;3569062;40;20053;-61
2022/06/25 04:46:37;;;;;;;4.60;3.67;;;;;;;18.66;73.38;100788.50;3567923;40;20094;-61
2022/06/25 04:49:03;;;;;;;4.30;3.10;;;;;;;18.59;73.19;100780.06;3571218;40;20056;-63
2022/06/25 04:51:28;;;;;;;4.05;3.05;;;;;;;18.74;72.71;100794.97;3561795;40;20049;-62
2022/06/25 04:53:57;;;;;;;5.60;3.08;;;;;;;18.81;72.53;100797.06;3571088;40;20051;-61
2022/06/25 04:56:29;;;;;;;2.72;2.53;;;;;;;18.89;72.60;100799.91;3568379;40;20092;-61
2022/06/25 04:58:57;;;;;;;6.43;2.90;;;;;;;18.70;72.36;100765.41;3557329;40;20100;-61
2022/06/25 05:01:22;;;;;;;3.70;2.72;;;;;;;18.90;72.42;100793.44;3570132;40;20053;-61
2022/06/25 05:03:48;;;;;;;5.70;3.22;;;;;;;18.91;71.76;100803.34;3567846;40;20135;-61
2022/06/25 05:06:15;;;;;;;4.28;2.70;;;;;;;18.94;73.06;100801.19;3570726;40;20307;-61
2022/06/25 05:08:41;;;;;;;3.97;2.60;;;;;;;18.95;72.08;100804.75;3571712;40;20076;-61
2022/06/25 05:11:07;;;;;;;3.45;2.50;;;;;;;18.92;72.02;100811.38;3569120;40;20053;-61
2022/06/25 05:13:33;;;;;;;3.50;2.58;;;;;;;18.93;72.66;100804.03;3570273;40;20072;-61
2022/06/25 05:15:58;;;;;;;5.40;2.75;;;;;;;18.95;72.30;100811.06;3569947;40;20087;-61
2022/06/25 05:18:24;;;;;;;4.40;3.03;;;;;;;18.89;72.28;100794.47;3568818;40;20161;-61
2022/06/25 05:20:50;;;;;;;5.47;3.22;;;;;;;18.91;71.16;100804.22;3568770;40;20104;-61
2022/06/25 05:23:15;;;;;;;6.47;2.80;;;;;;;18.85;71.84;100814.84;3570919;40;20049;-61
2022/06/25 05:25:41;;;;;;;4.97;3.08;;;;;;;18.88;72.60;100820.84;3569124;40;20079;-61
2022/06/25 05:28:08;;;;;;;3.72;2.80;;;;;;;18.93;72.52;100823.09;3570389;40;20048;-61
2022/06/25 05:30:34;;;;;;;4.80;2.90;;;;;;;18.82;72.29;100787.91;3569526;40;20041;-61
2022/06/25 05:33:00;;;;;;;5.60;3.10;;;;;;;19.06;72.03;100817.31;3570633;40;20072;-61
2022/06/25 05:35:26;;;;;;;3.97;2.83;;;;;;;19.13;71.23;100819.31;3561405;40;20099;-61
2022/06/25 05:37:52;;;;;;;3.55;3.15;;;;;;;19.18;70.92;100822.44;3569717;40;20069;-61
2022/06/25 05:40:18;;;;;;;3.90;2.78;;;;;;;19.23;70.88;100825.56;3569725;40;20099;-61
2022/06/25 05:42:44;;;;;;;5.15;2.95;;;;;;;19.33;71.00;100822.78;3570305;40;20061;-61
2022/06/25 05:45:10;;;;;;;5.03;3.13;;;;;;;19.33;70.65;100819.22;3571513;40;20084;-61
2022/06/25 05:47:36;;;;;;;8.52;2.83;;;;;;;19.52;70.81;100838.19;3566742;40;20069;-61
2022/06/25 05:50:03;;;;;;;5.00;4.15;;;;;;;19.39;69.84;100804.97;3569771;40;20303;-62
2022/06/25 05:52:29;;;;;;;11.55;7.00;;;;;;;19.64;69.85;100834.28;3569132;40;20045;-62
2022/06/25 05:54:54;;;;;;;5.60;3.42;;;;;;;19.59;69.28;100847.47;3569931;40;20059;-62
2022/06/25 05:57:20;;;;;;;4.30;3.28;;;;;;;19.56;69.54;100847.75;3570507;40;20388;-62
2022/06/25 05:59:45;;;;;;;5.38;3.00;;;;;;;19.54;69.34;100848.97;3570976;40;20142;-62
2022/06/25 06:02:11;;;;;;;3.30;2.72;;;;;;;19.44;69.99;100821.72;3567539;40;20060;-62
2022/06/25 06:04:37;;;;;;;5.00;3.17;;;;;;;19.72;69.71;100847.13;3568189;40;20138;-62
2022/06/25 06:07:04;;;;;;;4.63;3.15;;;;;;;19.80;68.99;100849.09;3567434;40;20447;-62
2022/06/25 06:09:32;;;;;;;6.40;3.33;;;;;;;19.88;68.28;100854.63;3570134;40;20178;-62
2022/06/25 06:11:59;;;;;;;7.55;3.30;;;;;;;19.91;68.21;100854.31;3567416;40;20079;-62
2022/06/25 06:14:25;;;;;;;6.97;3.03;;;;;;;19.92;68.28;100859.63;3569096;40;20071;-62
2022/06/25 06:16:51;;;;;;;5.10;2.70;;;;;;;19.98;68.37;100860.00;3569552;40;20072;-62
2022/06/25 06:19:17;;;;;;;5.00;2.67;;;;;;;20.00;67.46;100856.13;3569235;40;20052;-62
2022/06/25 06:21:43;;;;;;;5.57;3.00;;;;;;;20.01;67.08;100867.88;3569286;40;20157;-62
2022/06/25 06:24:09;;;;;;;7.03;3.15;;;;;;;19.99;67.63;100868.06;3569061;40;20065;-64
2022/06/25 06:26:35;;;;;;;4.15;2.85;;;;;;;20.07;68.71;100873.56;3570221;40;20071;-62
2022/06/25 06:29:01;;;;;;;3.00;2.65;;;;;;;20.08;67.81;100874.47;3571252;40;20052;-62
2022/06/25 06:31:27;;;;;;;3.60;3.03;;;;;;;20.14;67.89;100880.16;3568113;40;20107;-62
2022/06/25 06:33:52;;;;;;;4.50;2.70;;;;;;;20.14;67.28;100874.69;3568701;40;20055;-62
2022/06/25 06:36:18;;;;;;;7.40;3.10;;;;;;;20.21;68.43;100882.25;3571738;40;20094;-62
2022/06/25 06:38:44;;;;;;;6.50;2.92;;;;;;;20.20;67.92;100873.19;3574968;40;20066;-62
2022/06/25 06:41:09;;;;;;;3.30;2.78;;;;;;;20.23;67.80;100882.94;3569936;40;20115;-62
2022/06/25 06:43:36;;;;;;;5.25;2.72;;;;;;;20.28;67.37;100881.47;3568863;40;20049;-62
2022/06/25 06:46:02;;;;;;;7.22;3.00;;;;;;;20.34;67.10;100877.25;3569443;40;20075;-62
2022/06/25 06:48:28;;;;;;;6.10;2.92;;;;;;;20.41;67.76;100881.91;3569534;40;20049;-62
2022/06/25 06:50:53;;;;;;;5.75;2.85;;;;;;;20.50;67.46;100891.03;3569621;40;20119;-62
2022/06/25 06:53:21;;;;;;;6.03;3.08;;;;;;;20.66;66.76;100886.78;3569797;40;20359;-62
2022/06/25 06:55:47;;;;;;;4.13;2.65;;;;;;;20.86;67.08;100888.28;3565578;40;20053;-62
2022/06/25 06:58:13;;;;;;;5.53;2.83;;;;;;;21.01;66.66;100892.13;3565460;40;20451;-62
2022/06/25 07:00:38;;;;;;;3.95;2.63;;;;;;;21.16;64.03;100891.56;3569560;40;20074;-62
2022/06/25 07:03:04;;;;;;;4.78;2.75;;;;;;;21.30;64.69;100877.25;3570719;40;20040;-62
2022/06/25 07:05:30;;;;;;;5.35;2.45;;;;;;;21.59;63.64;100884.25;3570718;40;20304;-65
2022/06/25 07:07:56;;;;;;;6.18;2.80;;;;;;;21.68;62.50;100872.31;3573225;40;20339;-65
2022/06/25 07:10:22;;;;;;;6.95;2.58;;;;;;;21.75;61.92;100871.47;3568751;40;20438;-65
2022/06/25 07:12:48;;;;;;;3.45;2.70;;;;;;;21.96;61.57;100884.72;3569665;40;20454;-65
2022/06/25 07:15:13;;;;;;;3.30;2.40;;;;;;;22.08;60.32;100892.63;3570317;40;20061;-65
2022/06/25 07:17:39;;;;;;;3.35;2.47;;;;;;;22.31;60.69;100890.09;3567898;40;20126;-65
2022/06/25 07:20:06;;;;;;;4.78;2.63;;;;;;;22.47;60.04;100882.75;3571850;40;20067;-65
2022/06/25 07:22:33;;;;;;;3.65;2.13;;;;;;;22.55;59.14;100887.38;3569330;40;20103;-65
2022/06/25 07:24:59;;;;;;;3.45;2.10;;;;;;;22.63;59.53;100897.47;3570405;40;20387;-65
2022/06/25 07:27:24;;;;;;;6.30;2.60;;;;;;;22.72;59.82;100890.97;3568028;40;20051;-65
2022/06/25 07:29:50;;;;;;;2.90;2.05;;;;;;;22.58;58.57;100864.25;3571417;40;20075;-65
2022/06/25 07:32:16;;;;;;;3.33;2.33;;;;;;;22.66;58.97;100899.88;3570158;40;20091;-65
2022/06/25 07:34:42;;;;;;;6.45;2.13;;;;;;;22.77;58.77;100904.13;3569268;40;20076;-65
2022/06/25 07:37:08;;;;;;;3.22;2.20;;;;;;;22.87;58.60;100900.22;3569241;40;20082;-65
2022/06/25 07:39:34;;;;;;;2.38;2.05;;;;;;;22.92;58.31;100908.75;3570877;40;20130;-65
2022/06/25 07:42:00;;;;;;;5.05;2.17;;;;;;;22.96;58.13;100902.94;3572664;40;20048;-65
2022/06/25 07:44:26;;;;;;;4.80;2.17;;;;;;;22.91;58.49;100907.03;3571020;40;20405;-65
2022/06/25 07:46:51;;;;;;;2.67;2.00;;;;;;;22.78;58.61;100906.72;3571887;40;20045;-65
2022/06/25 07:49:17;;;;;;;3.92;2.00;;;;;;;22.44;58.47;100888.56;3569377;40;20053;-65
2022/06/25 07:52:00;;;;;;;3.58;1.98;;;;;;;22.45;59.08;100898.53;3571129;40;21023;-65
2022/06/25 07:54:30;;;;;;;2.33;1.95;;;;;;;22.39;59.54;100912.00;3568211;40;20057;-64
2022/06/25 07:56:57;;;;;;;3.92;2.00;;;;;;;22.27;59.86;100906.03;3572088;40;20064;-65
2022/06/25 07:59:24;;;;;;;4.03;1.90;;;;;;;22.27;59.48;100905.19;3572696;40;20356;-65
2022/06/25 08:01:50;;;;;;;4.15;1.73;;;;;;;22.29;60.22;100903.97;3563469;40;20096;-65
2022/06/25 08:04:16;;;;;;;3.10;2.00;;;;;;;22.32;60.47;100895.41;3572178;40;20052;-65
2022/06/25 08:06:43;;;;;;;2.92;1.83;;;;;;;22.33;59.38;100901.72;3570666;40;20053;-65
2022/06/25 08:09:09;;;;;;;3.63;2.00;;;;;;;22.26;60.12;100918.00;3570034;40;20057;-65
2022/06/25 08:11:37;;;;;;;4.30;1.90;;;;;;;22.16;59.50;100904.44;3569273;40;20040;-65
2022/06/25 08:14:03;;;;;;;4.43;1.48;;;;;;;22.13;60.56;100906.66;3569174;40;20045;-65
2022/06/25 08:16:29;;;;;;;3.13;1.70;;;;;;;22.08;60.70;100909.03;3568898;40;20057;-65
2022/06/25 08:18:55;;;;;;;4.32;1.90;;;;;;;21.96;61.03;100901.13;3570853;40;20088;-65
2022/06/25 08:21:21;;;;;;;3.38;1.52;;;;;;;21.94;61.72;100916.00;3569159;40;20068;-65
2022/06/25 08:23:48;;;;;;;2.15;1.60;;;;;;;21.86;61.63;100907.78;3568737;40;20109;-65
2022/06/25 08:26:15;;;;;;;4.10;2.10;;;;;;;21.82;62.00;100907.28;3569389;40;20067;-65
2022/06/25 08:28:44;;;;;;;4.30;1.90;;;;;;;21.79;62.62;100910.34;3570501;40;20053;-65
2022/06/25 08:31:11;;;;;;;4.93;1.90;;;;;;;21.77;62.85;100915.97;3559978;40;20473;-65
2022/06/25 08:33:36;;;;;;;2.83;2.10;;;;;;;21.72;63.24;100920.22;3570871;40;20056;-65
2022/06/25 08:36:02;;;;;;;9.43;4.57;;;;;;;21.70;63.46;100908.59;3569135;40;20093;-65
2022/06/25 08:38:28;;;;;;;3.38;1.90;;;;;;;21.72;63.16;100912.00;3568617;40;20092;-65
2022/06/25 08:41:00;;;;;;;3.72;2.53;;;;;;;21.69;63.06;100912.31;3559377;40;20076;-65
2022/06/25 08:43:26;;;;;;;3.38;1.92;;;;;;;21.68;62.38;100896.94;3570218;40;20060;-64
2022/06/25 08:45:55;;;;;;;2.20;1.73;;;;;;;21.96;62.22;100922.19;3570159;40;20080;-63
2022/06/25 08:48:23;;;;;;;3.47;1.70;;;;;;;21.89;60.44;100899.25;3570759;40;20068;-63
2022/06/25 08:50:51;;;;;;;2.55;1.58;;;;;;;22.09;60.94;100924.44;3572433;40;20330;-65
2022/06/25 08:53:18;;;;;;;3.53;1.60;;;;;;;21.90;60.02;100881.78;3574021;40;20105;-66
2022/06/25 08:55:47;;;;;;;3.92;1.88;;;;;;;22.17;60.25;100919.88;3571743;40;20066;-65
2022/06/25 08:58:14;;;;;;;3.22;2.03;;;;;;;22.48;61.58;100911.84;3568727;40;20056;-65
2022/06/25 09:00:45;;;;;;;2.30;1.52;;;;;;;22.87;58.29;100916.66;3569912;40;20084;-65
2022/06/25 09:03:11;;;;;;;4.00;1.65;;;;;;;23.17;58.58;100906.00;3568471;40;20388;-66
2022/06/25 09:05:43;;;;;;;4.45;1.60;;;;;;;23.39;57.22;100915.38;3568941;40;20092;-65
2022/06/25 09:08:13;;;;;;;4.18;1.67;;;;;;;23.59;57.84;100921.28;3571439;40;20325;-65
2022/06/25 09:10:43;;;;;;;1.73;1.35;;;;;;;23.67;56.73;100917.69;3569148;40;20099;-65
2022/06/25 09:13:11;;;;;;;2.97;1.48;;;;;;;23.51;57.38;100919.44;3570217;40;20127;-65
2022/06/25 09:15:41;;;;;;;6.28;1.98;;;;;;;23.33;57.58;100916.94;3569782;40;20386;-66
2022/06/25 09:18:25;;;;;;;5.43;2.25;;;;;;;23.19;57.50;100919.56;3571277;40;20100;-65
2022/06/25 09:21:07;;;;;;;4.35;1.67;;;;;;;23.09;57.90;100925.19;3570129;40;20131;-65
2022/06/25 09:23:58;;;;;;;3.15;1.67;;;;;;;23.18;58.97;100918.66;3568987;40;20477;-65
2022/06/25 09:26:24;;;;;;;4.75;1.45;;;;;;;23.29;58.91;100912.81;3568212;40;20063;-65
2022/06/25 09:28:50;;;;;;;2.15;1.48;;;;;;;23.33;58.24;100922.41;3569770;40;20308;-65
2022/06/25 09:31:37;;;;;;;5.63;1.45;;;;;;;23.39;57.76;100918.97;3568934;40;20131;-65
2022/06/25 09:34:08;;;;;;;5.50;2.30;;;;;;;23.57;58.73;100917.88;3572719;40;20045;-63
2022/06/25 09:36:34;;;;;;;1.60;1.27;;;;;;;23.55;58.35;100912.56;3558248;40;20391;-65
2022/06/25 09:39:00;;;;;;;3.33;1.70;;;;;;;23.43;56.76;100902.16;3571580;40;20061;-63
2022/06/25 09:41:26;;;;;;;9.38;5.47;;;;;;;23.61;57.52;100924.72;3570208;40;20049;-64
2022/06/25 09:43:52;;;;;;;3.08;1.35;;;;;;;23.67;55.29;100920.41;3567771;40;20391;-63
2022/06/25 09:46:18;;;;;;;2.50;1.20;;;;;;;23.51;55.75;100888.41;3571512;40;20197;-65
2022/06/25 09:48:45;;;;;;;2.20;1.25;;;;;;;23.52;55.78;100865.41;3570259;40;20049;-63
2022/06/25 09:51:24;;;;;;;1.27;0.90;;;;;;;23.85;55.19;100921.06;3570492;40;20061;-64
2022/06/25 09:53:57;;;;;;;2.13;1.20;;;;;;;23.89;54.98;100922.41;3569321;40;20157;-65
2022/06/25 09:56:29;;;;;;;3.97;1.10;;;;;;;24.03;55.21;100923.53;3566867;40;20055;-63
2022/06/25 09:58:56;;;;;;;2.53;1.35;;;;;;;24.15;53.23;100930.31;3569149;40;20091;-63
2022/06/25 10:01:26;;;;;;;3.63;1.50;;;;;;;24.10;53.21;100924.50;3566355;40;20473;-63
2022/06/25 10:03:51;;;;;;;3.55;1.67;;;;;;;24.15;52.66;100933.06;3568236;40;20052;-63
2022/06/25 10:06:21;;;;;;;1.98;1.10;;;;;;;24.22;53.24;100934.03;3567735;40;20060;-64
2022/06/25 10:09:03;;;;;;;2.72;1.33;;;;;;;24.15;53.22;100896.50;3570810;40;20061;-65
2022/06/25 10:11:31;;;;;;;5.35;3.63;;;;;;;24.37;52.52;100925.03;3553415;40;20060;-66
2022/06/25 10:13:57;;;;;;;6.53;2.58;;;;;;;24.35;52.74;100921.59;3569166;40;20080;-66
2022/06/25 10:16:26;;;;;;;5.20;2.45;;;;;;;24.82;53.72;100929.66;3567854;40;20098;-65
2022/06/25 10:18:53;;;;;;;3.45;1.25;;;;;;;25.18;50.90;100916.13;3568249;40;20092;-66
2022/06/25 10:21:22;;;;;;;2.08;1.20;;;;;;;25.26;50.44;100917.06;3570114;40;20455;-66
2022/06/25 10:23:55;;;;;;;3.58;1.55;;;;;;;25.15;49.88;100921.13;3557673;40;20053;-63
2022/06/25 10:26:21;;;;;;;;;;;;;;;25.18;50.30;100902.38;3568753;40;20073;-64
2022/06/25 10:28:48;;;;;;;2.83;1.60;;;;;;;25.59;50.27;100914.78;3567283;40;19937;-65
2022/06/25 10:31:17;;;;;;;2.65;1.08;;;;;;;25.92;48.59;100901.47;3569695;40;20393;-65
2022/06/25 10:33:52;;;;;;;3.53;1.20;;;;;;;26.32;47.15;100902.75;3568480;40;20104;-66
2022/06/25 10:36:18;;;;;;;5.40;2.17;;;;;;;26.50;45.95;100902.34;3569554;40;20097;-65
2022/06/25 10:38:43;;;;;;;1.73;1.20;;;;;;;26.68;46.45;100923.09;3571674;40;20096;-65
2022/06/25 10:44:20;;;;;;;1.98;0.90;;;;;;;27.12;45.71;100914.53;3522899;40;20077;-65
2022/06/25 10:46:45;;;;;;;2.38;1.10;;;;;;;27.37;45.24;100920.47;3571952;40;20130;-65
2022/06/25 10:49:22;;;;;;;1.08;0.73;;;;;;;27.09;43.98;100923.22;3571509;40;20056;-65
2022/06/25 10:51:51;;;;;;;1.15;1.05;;;;;;;27.19;45.56;100920.13;3571243;40;20089;-64
2022/06/25 10:54:23;;;;;;;3.83;1.60;;;;;;;27.25;44.72;100911.03;3572534;40;20060;-65
2022/06/25 10:56:58;;;;;;;1.38;1.08;;;;;;;27.28;45.07;100910.63;3571000;40;20096;-66
2022/06/25 10:59:37;;;;;;;2.60;0.80;;;;;;;27.46;43.26;100913.69;3568420;40;20126;-65
2022/06/25 11:02:07;;;;;;;17.42;1.40;;;;;;;27.37;42.87;100881.81;3570298;40;20060;-65
2022/06/25 11:04:34;;;;;;;1.00;0.82;;;;;;;27.38;42.29;100905.59;3570300;40;20053;-65
2022/06/25 11:07:12;;;;;;;6.35;2.40;;;;;;;27.21;44.77;100904.19;3572087;40;20307;-65
2022/06/25 11:09:50;;;;;;;1.67;0.60;;;;;;;27.29;45.16;100912.34;3568586;40;21422;-65
2022/06/25 11:12:17;;;;;;;0.93;0.85;;;;;;;27.07;43.68;100912.34;3571701;40;20415;-65
2022/06/25 11:14:43;;;;;;;1.35;0.95;;;;;;;26.77;44.67;100913.63;3568874;40;20342;-68
2022/06/25 11:17:10;;;;;;;4.78;0.98;;;;;;;26.54;44.41;100898.13;3571241;40;20069;-65
2022/06/25 11:19:37;;;;;;;1.33;1.00;;;;;;;26.29;45.36;100910.56;3572648;40;20138;-65
2022/06/25 11:22:04;;;;;;;1.92;0.90;;;;;;;26.21;45.55;100902.44;3570549;40;20056;-64
2022/06/25 11:24:32;;;;;;;1.98;0.90;;;;;;;26.20;46.38;100917.25;3570788;40;20367;-65
2022/06/25 11:29:52;;;;;;;1.52;0.90;;;;;;;26.93;44.98;100905.06;3570116;40;20055;-65
2022/06/25 11:32:28;;;;;;;2.13;0.75;;;;;;;26.95;45.01;100905.69;3571764;40;20075;-63
2022/06/25 11:35:00;;;;;;;2.40;0.70;;;;;;;26.89;43.97;100905.63;3575333;40;20393;-63
2022/06/25 11:37:30;;;;;;;2.13;0.80;;;;;;;26.88;45.35;100913.06;3572920;40;20052;-64
2022/06/25 11:39:56;;;;;;;0.88;0.60;;;;;;;26.88;44.73;100921.34;3574434;40;20114;-63